EDDE/ERF METAR and TAF weather

Enter ICAO airport designator
Station Type Date Time Source
EDDE METAR 2021/05/13 06:20 UTC NOAA

EDDE 130620Z 27006KT 9999 FEW005 10/09 Q1007 NOSIG


Station Type Date Time Source
EDDE Decoded METAR 2021/05/13 06:20 UTC NOAA

Erfurt-Bindersleben, Germany (EDDE) 50-59N 010-58E 322M
May 13, 2021 - 02:20 AM EDT / 2021.05.13 0620 UTC
Wind: from the W (270 degrees) at 7 MPH (6 KT):0
Visibility: greater than 7 mile(s):0
Sky conditions: mostly clear
Temperature: 50 F (10 C)
Dew Point: 48 F (9 C)
Relative Humidity: 93%
Pressure (altimeter): 29.74 in. Hg (1007 hPa)
ob: EDDE 130620Z 27006KT 9999 FEW005 10/09 Q1007 NOSIG
cycle: 6

Station Type Date Time Source
EDDE TAF 2021/05/13 06:27 UTC NOAA

TAF TAF EDDE 130500Z 1306/1406 30006KT 9999 BKN030 PROB30
TEMPO 1315/1319 SHRA SCT025CB
BECMG 1317/1319 24005KT PROB30
TEMPO 1402/1405 2000 BCFG

Example: see airport list